Hlavní strana
METAR-TAF:

METAR-TAF

Letiště :

Frontone, Itálie

zeměpisná šířka: 43-31N, zeměpisná délka: 012-44E, výška: 570 m

Aktuální stav počasí

Zpráva byla vytvořena před 54 minutami, v 00:55 UTC
Západojihozápadní vítr 6 kt
Teplota 21°C
Vlhkost vzduchu 69%
Tlak 1018 hPa
Viditelnost 10 km a více
Žádná oblačnost pod 1500 m, nevyskytují se cumulonimby.

METAR: LIVF 190055Z 25006KT CAVOK 21/15 Q1018 RMK SKC MON LIB VAL NIL VIS MIN 9999

Čas: 03:49 (01:49 UTC)


TAF: chybějící

Stav a předpovědi počasí z více než 4 000 letišť (zprávy METAR a TAF).

Červené a žluté tečky na mapě představují dostupné meteorologické stanice.

Když kurzor umístíte na tečku, zobrazí se název stanice.

Pak kliknutím zobrazíte stav a předpověď počasí.

Chcete-li změnit mapu, kliknutím na zelené tlačítko se znaménkem +mapu přiblížíte, kliknutím na zelené tlačítko se znaménkem – mapu oddálíte a kliknutím na zelené šipky přejdete na sousední mapy.


METAR-TAF: